sensor_id;sensor_type;location;lat;lon;timestamp;pressure;altitude;pressure_sealevel;temperature;humidity
11856;BME280;5987;53.140;8.904;2023-04-15T00:01:08;101050.41;;;4.90;100.00
11856;BME280;5987;53.140;8.904;2023-04-15T00:04:13;101053.91;;;4.86;100.00
11856;BME280;5987;53.140;8.904;2023-04-15T00:07:17;101051.34;;;4.78;100.00
11856;BME280;5987;53.140;8.904;2023-04-15T00:10:20;101052.28;;;4.75;100.00
11856;BME280;5987;53.140;8.904;2023-04-15T00:13:25;101054.84;;;4.77;100.00
11856;BME280;5987;53.140;8.904;2023-04-15T00:16:29;101052.19;;;4.81;100.00
11856;BME280;5987;53.140;8.904;2023-04-15T00:19:33;101042.63;;;4.84;100.00
11856;BME280;5987;53.140;8.904;2023-04-15T00:22:36;101046.91;;;4.89;100.00
11856;BME280;5987;53.140;8.904;2023-04-15T00:25:40;101046.91;;;4.92;100.00
11856;BME280;5987;53.140;8.904;2023-04-15T00:28:45;101038.25;;;4.90;100.00
11856;BME280;5987;53.140;8.904;2023-04-15T00:31:48;101046.00;;;4.96;100.00
11856;BME280;5987;53.140;8.904;2023-04-15T00:34:52;101036.50;;;4.92;100.00
11856;BME280;5987;53.140;8.904;2023-04-15T00:37:55;101040.75;;;5.00;100.00
11856;BME280;5987;53.140;8.904;2023-04-15T00:40:59;101036.41;;;5.00;100.00
11856;BME280;5987;53.140;8.904;2023-04-15T00:44:05;101038.13;;;5.03;100.00
11856;BME280;5987;53.140;8.904;2023-04-15T00:47:10;101040.78;;;4.96;100.00
11856;BME280;5987;53.140;8.904;2023-04-15T00:50:14;101044.25;;;4.95;100.00
11856;BME280;5987;53.140;8.904;2023-04-15T00:53:17;101039.84;;;5.01;100.00
11856;BME280;5987;53.140;8.904;2023-04-15T00:56:22;101038.09;;;5.04;100.00
11856;BME280;5987;53.140;8.904;2023-04-15T00:59:29;101028.56;;;5.03;100.00
11856;BME280;5987;53.140;8.904;2023-04-15T01:02:33;101026.00;;;5.00;100.00
11856;BME280;5987;53.140;8.904;2023-04-15T01:05:38;101021.59;;;5.07;100.00
11856;BME280;5987;53.140;8.904;2023-04-15T01:08:43;101013.81;;;5.05;100.00
11856;BME280;5987;53.140;8.904;2023-04-15T01:11:46;101013.81;;;5.05;100.00
11856;BME280;5987;53.140;8.904;2023-04-15T01:14:52;101007.69;;;5.06;100.00
11856;BME280;5987;53.140;8.904;2023-04-15T01:17:57;101010.28;;;5.06;100.00
11856;BME280;5987;53.140;8.904;2023-04-15T01:21:03;101011.25;;;5.02;100.00
11856;BME280;5987;53.140;8.904;2023-04-15T01:24:09;101016.44;;;5.01;100.00
11856;BME280;5987;53.140;8.904;2023-04-15T01:27:14;101004.31;;;5.00;100.00
11856;BME280;5987;53.140;8.904;2023-04-15T01:30:19;101004.22;;;5.07;100.00
11856;BME280;5987;53.140;8.904;2023-04-15T01:33:23;101009.44;;;5.06;100.00
11856;BME280;5987;53.140;8.904;2023-04-15T01:36:26;101005.09;;;5.08;100.00
11856;BME280;5987;53.140;8.904;2023-04-15T01:39:31;101007.66;;;5.11;100.00
11856;BME280;5987;53.140;8.904;2023-04-15T01:42:36;101016.31;;;5.13;100.00
11856;BME280;5987;53.140;8.904;2023-04-15T01:45:40;101012.84;;;5.14;100.00
11856;BME280;5987;53.140;8.904;2023-04-15T01:48:44;101011.00;;;5.22;100.00
11856;BME280;5987;53.140;8.904;2023-04-15T01:51:47;101009.31;;;5.18;100.00
11856;BME280;5987;53.140;8.904;2023-04-15T01:54:51;101010.13;;;5.23;100.00
11856;BME280;5987;53.140;8.904;2023-04-15T01:57:56;101006.63;;;5.24;100.00
11856;BME280;5987;53.140;8.904;2023-04-15T02:01:00;101000.63;;;5.19;100.00
11856;BME280;5987;53.140;8.904;2023-04-15T02:04:04;101000.66;;;5.16;100.00
11856;BME280;5987;53.140;8.904;2023-04-15T02:07:08;101004.03;;;5.24;100.00
11856;BME280;5987;53.140;8.904;2023-04-15T02:10:12;100995.38;;;5.22;100.00
11856;BME280;5987;53.140;8.904;2023-04-15T02:13:18;101004.03;;;5.24;100.00
11856;BME280;5987;53.140;8.904;2023-04-15T02:16:22;100998.00;;;5.22;100.00
11856;BME280;5987;53.140;8.904;2023-04-15T02:19:26;101002.28;;;5.26;100.00
11856;BME280;5987;53.140;8.904;2023-04-15T02:22:29;101000.59;;;5.22;100.00
11856;BME280;5987;53.140;8.904;2023-04-15T02:25:33;101007.50;;;5.26;100.00
11856;BME280;5987;53.140;8.904;2023-04-15T02:28:38;101004.00;;;5.27;100.00
11856;BME280;5987;53.140;8.904;2023-04-15T02:31:41;101003.09;;;5.30;100.00
11856;BME280;5987;53.140;8.904;2023-04-15T02:34:46;101007.50;;;5.26;100.00
11856;BME280;5987;53.140;8.904;2023-04-15T02:37:49;101011.81;;;5.26;100.00
11856;BME280;5987;53.140;8.904;2023-04-15T02:40:53;101004.88;;;5.28;100.00
11856;BME280;5987;53.140;8.904;2023-04-15T02:43:59;101004.88;;;5.28;100.00
11856;BME280;5987;53.140;8.904;2023-04-15T02:47:02;101005.75;;;5.25;100.00
11856;BME280;5987;53.140;8.904;2023-04-15T02:50:10;100999.63;;;5.31;100.00
11856;BME280;5987;53.140;8.904;2023-04-15T02:53:14;101006.59;;;5.29;100.00
11856;BME280;5987;53.140;8.904;2023-04-15T02:56:18;101008.28;;;5.31;100.00
11856;BME280;5987;53.140;8.904;2023-04-15T02:59:25;101007.44;;;5.29;100.00
11856;BME280;5987;53.140;8.904;2023-04-15T03:02:33;101014.38;;;5.30;100.00
11856;BME280;5987;53.140;8.904;2023-04-15T03:05:37;101004.78;;;5.32;100.00
11856;BME280;5987;53.140;8.904;2023-04-15T03:08:41;101005.66;;;5.35;100.00
11856;BME280;5987;53.140;8.904;2023-04-15T03:11:45;101005.66;;;5.35;100.00
11856;BME280;5987;53.140;8.904;2023-04-15T03:14:50;101007.34;;;5.36;100.00
11856;BME280;5987;53.140;8.904;2023-04-15T03:17:53;101004.69;;;5.42;100.00
11856;BME280;5987;53.140;8.904;2023-04-15T03:20:57;101000.34;;;5.41;100.00
11856;BME280;5987;53.140;8.904;2023-04-15T03:24:00;101000.34;;;5.41;100.00
11856;BME280;5987;53.140;8.904;2023-04-15T03:27:04;100993.38;;;5.43;100.00
11856;BME280;5987;53.140;8.904;2023-04-15T03:30:11;100991.69;;;5.42;100.00
11856;BME280;5987;53.140;8.904;2023-04-15T03:33:15;100992.50;;;5.44;100.00
11856;BME280;5987;53.140;8.904;2023-04-15T03:36:19;100993.38;;;5.44;100.00
11856;BME280;5987;53.140;8.904;2023-04-15T03:39:22;100994.25;;;5.43;100.00
11856;BME280;5987;53.140;8.904;2023-04-15T03:42:26;100996.00;;;5.44;100.00
11856;BME280;5987;53.140;8.904;2023-04-15T03:45:31;101000.28;;;5.47;100.00
11856;BME280;5987;53.140;8.904;2023-04-15T03:48:35;100998.56;;;5.46;100.00
11856;BME280;5987;53.140;8.904;2023-04-15T03:51:38;100990.75;;;5.46;100.00
11856;BME280;5987;53.140;8.904;2023-04-15T03:54:42;100994.19;;;5.48;100.00
11856;BME280;5987;53.140;8.904;2023-04-15T03:57:46;100997.63;;;5.52;100.00
11856;BME280;5987;53.140;8.904;2023-04-15T04:00:50;100993.31;;;5.49;100.00
11856;BME280;5987;53.140;8.904;2023-04-15T04:03:54;100987.22;;;5.52;100.00
11856;BME280;5987;53.140;8.904;2023-04-15T04:06:58;100995.00;;;5.53;100.00
11856;BME280;5987;53.140;8.904;2023-04-15T04:10:02;100991.53;;;5.54;100.00
11856;BME280;5987;53.140;8.904;2023-04-15T04:13:06;101003.63;;;5.55;100.00
11856;BME280;5987;53.140;8.904;2023-04-15T04:16:10;101001.88;;;5.59;100.00
11856;BME280;5987;53.140;8.904;2023-04-15T04:19:14;101009.72;;;5.56;100.00
11856;BME280;5987;53.140;8.904;2023-04-15T04:22:21;100998.38;;;5.58;100.00
11856;BME280;5987;53.140;8.904;2023-04-15T04:25:25;101001.94;;;5.54;100.00
11856;BME280;5987;53.140;8.904;2023-04-15T04:28:29;101004.53;;;5.56;100.00
11856;BME280;5987;53.140;8.904;2023-04-15T04:31:34;101006.19;;;5.61;100.00
11856;BME280;5987;53.140;8.904;2023-04-15T04:34:38;101006.25;;;5.55;100.00
11856;BME280;5987;53.140;8.904;2023-04-15T04:37:41;101012.34;;;5.56;100.00
11856;BME280;5987;53.140;8.904;2023-04-15T04:40:45;101011.41;;;5.60;100.00
11856;BME280;5987;53.140;8.904;2023-04-15T04:43:48;101012.28;;;5.59;100.00
11856;BME280;5987;53.140;8.904;2023-04-15T04:46:53;101005.31;;;5.59;100.00
11856;BME280;5987;53.140;8.904;2023-04-15T04:49:57;101009.72;;;5.57;100.00
11856;BME280;5987;53.140;8.904;2023-04-15T04:53:01;101005.38;;;5.56;100.00
11856;BME280;5987;53.140;8.904;2023-04-15T04:56:05;101011.41;;;5.60;100.00
11856;BME280;5987;53.140;8.904;2023-04-15T04:59:09;101009.69;;;5.59;100.00
11856;BME280;5987;53.140;8.904;2023-04-15T05:02:14;101022.69;;;5.60;100.00
11856;BME280;5987;53.140;8.904;2023-04-15T05:05:17;101018.31;;;5.64;100.00
11856;BME280;5987;53.140;8.904;2023-04-15T05:08:21;101019.22;;;5.58;100.00
11856;BME280;5987;53.140;8.904;2023-04-15T05:11:25;101030.44;;;5.63;100.00
11856;BME280;5987;53.140;8.904;2023-04-15T05:14:29;101020.84;;;5.69;100.00
11856;BME280;5987;53.140;8.904;2023-04-15T05:17:34;101020.84;;;5.69;100.00
11856;BME280;5987;53.140;8.904;2023-04-15T05:20:38;101023.53;;;5.64;100.00
11856;BME280;5987;53.140;8.904;2023-04-15T05:23:42;101017.38;;;5.66;100.00
11856;BME280;5987;53.140;8.904;2023-04-15T05:26:46;101028.69;;;5.65;100.00
11856;BME280;5987;53.140;8.904;2023-04-15T05:29:49;101036.41;;;5.72;100.00
11856;BME280;5987;53.140;8.904;2023-04-15T05:32:54;101026.06;;;5.67;100.00
11856;BME280;5987;53.140;8.904;2023-04-15T05:35:58;101030.38;;;5.70;100.00
11856;BME280;5987;53.140;8.904;2023-04-15T05:39:01;101033.78;;;5.75;100.00
11856;BME280;5987;53.140;8.904;2023-04-15T05:42:05;101033.75;;;5.76;100.00
11856;BME280;5987;53.140;8.904;2023-04-15T05:45:10;101039.84;;;5.74;100.00
11856;BME280;5987;53.140;8.904;2023-04-15T05:48:15;101033.81;;;5.72;100.00
11856;BME280;5987;53.140;8.904;2023-04-15T05:51:18;101035.41;;;5.82;100.00
11856;BME280;5987;53.140;8.904;2023-04-15T05:54:22;101038.09;;;5.76;100.00
11856;BME280;5987;53.140;8.904;2023-04-15T05:57:26;101035.47;;;5.77;100.00
11856;BME280;5987;53.140;8.904;2023-04-15T06:00:29;101035.41;;;5.82;100.00
11856;BME280;5987;53.140;8.904;2023-04-15T06:03:34;101039.75;;;5.83;100.00
11856;BME280;5987;53.140;8.904;2023-04-15T06:06:38;101045.75;;;5.88;100.00
11856;BME280;5987;53.140;8.904;2023-04-15T06:09:42;101037.84;;;5.94;100.00
11856;BME280;5987;53.140;8.904;2023-04-15T06:12:46;101040.44;;;5.97;100.00
11856;BME280;5987;53.140;8.904;2023-04-15T06:15:49;101048.28;;;5.93;100.00
11856;BME280;5987;53.140;8.904;2023-04-15T06:18:54;101052.59;;;5.98;100.00
11856;BME280;5987;53.140;8.904;2023-04-15T06:21:58;101052.56;;;6.00;100.00
11856;BME280;5987;53.140;8.904;2023-04-15T06:25:02;101052.47;;;6.08;100.00
11856;BME280;5987;53.140;8.904;2023-04-15T06:28:06;101064.69;;;6.03;100.00
11856;BME280;5987;53.140;8.904;2023-04-15T06:31:10;101055.97;;;6.05;100.00
11856;BME280;5987;53.140;8.904;2023-04-15T06:34:15;101072.41;;;6.12;100.00
11856;BME280;5987;53.140;8.904;2023-04-15T06:37:19;101070.72;;;6.08;100.00
11856;BME280;5987;53.140;8.904;2023-04-15T06:40:23;101070.69;;;6.09;100.00
11856;BME280;5987;53.140;8.904;2023-04-15T06:43:27;101075.84;;;6.12;100.00
11856;BME280;5987;53.140;8.904;2023-04-15T06:46:30;101074.91;;;6.18;100.00
11856;BME280;5987;53.140;8.904;2023-04-15T06:49:35;101071.41;;;6.19;100.00
11856;BME280;5987;53.140;8.904;2023-04-15T06:52:39;101080.09;;;6.20;100.00
11856;BME280;5987;53.140;8.904;2023-04-15T06:55:43;101078.34;;;6.22;100.00
11856;BME280;5987;53.140;8.904;2023-04-15T06:58:47;101080.91;;;6.23;100.00
11856;BME280;5987;53.140;8.904;2023-04-15T07:01:50;101082.59;;;6.27;100.00
11856;BME280;5987;53.140;8.904;2023-04-15T07:04:55;101079.13;;;6.27;100.00
11856;BME280;5987;53.140;8.904;2023-04-15T07:07:59;101077.38;;;6.27;100.00
11856;BME280;5987;53.140;8.904;2023-04-15T07:11:03;101077.22;;;6.37;100.00
11856;BME280;5987;53.140;8.904;2023-04-15T07:14:06;101075.53;;;6.32;100.00
11856;BME280;5987;53.140;8.904;2023-04-15T07:17:10;101077.25;;;6.35;100.00
11856;BME280;5987;53.140;8.904;2023-04-15T07:20:16;101077.22;;;6.37;100.00
11856;BME280;5987;53.140;8.904;2023-04-15T07:23:19;101072.88;;;6.37;100.00
11856;BME280;5987;53.140;8.904;2023-04-15T07:26:23;101077.16;;;6.40;100.00
11856;BME280;5987;53.140;8.904;2023-04-15T07:29:27;101078.03;;;6.42;100.00
11856;BME280;5987;53.140;8.904;2023-04-15T07:32:30;101084.06;;;6.44;100.00
11856;BME280;5987;53.140;8.904;2023-04-15T07:35:35;101088.38;;;6.46;100.00
11856;BME280;5987;53.140;8.904;2023-04-15T07:38:39;101087.53;;;6.46;100.00
11856;BME280;5987;53.140;8.904;2023-04-15T07:41:42;101094.41;;;6.50;100.00
11856;BME280;5987;53.140;8.904;2023-04-15T07:44:46;101091.78;;;6.51;100.00
11856;BME280;5987;53.140;8.904;2023-04-15T07:47:50;101092.59;;;6.55;100.00
11856;BME280;5987;53.140;8.904;2023-04-15T07:50:55;101089.19;;;6.51;100.00
11856;BME280;5987;53.140;8.904;2023-04-15T07:53:58;101098.59;;;6.60;100.00
11856;BME280;5987;53.140;8.904;2023-04-15T07:57:02;101095.09;;;6.61;100.00
11856;BME280;5987;53.140;8.904;2023-04-15T08:00:07;101090.66;;;6.66;100.00
11856;BME280;5987;53.140;8.904;2023-04-15T08:03:11;101099.41;;;6.62;100.00
11856;BME280;5987;53.140;8.904;2023-04-15T08:06:16;101093.28;;;6.65;100.00
11856;BME280;5987;53.140;8.904;2023-04-15T08:09:19;101101.16;;;6.63;100.00
11856;BME280;5987;53.140;8.904;2023-04-15T08:12:23;101096.66;;;6.72;100.00
11856;BME280;5987;53.140;8.904;2023-04-15T08:15:43;101097.53;;;6.72;100.00
11856;BME280;5987;53.140;8.904;2023-04-15T08:18:49;101095.78;;;6.73;100.00
11856;BME280;5987;53.140;8.904;2023-04-15T08:21:55;101095.75;;;6.74;100.00
11856;BME280;5987;53.140;8.904;2023-04-15T08:24:58;101107.75;;;6.84;100.00
11856;BME280;5987;53.140;8.904;2023-04-15T08:28:04;101105.25;;;6.80;100.00
11856;BME280;5987;53.140;8.904;2023-04-15T08:31:08;101108.66;;;6.85;100.00
11856;BME280;5987;53.140;8.904;2023-04-15T08:34:12;101108.59;;;6.88;100.00
11856;BME280;5987;53.140;8.904;2023-04-15T08:37:18;101114.69;;;6.87;100.00
11856;BME280;5987;53.140;8.904;2023-04-15T08:40:23;101116.41;;;6.88;100.00
11856;BME280;5987;53.140;8.904;2023-04-15T08:43:34;101108.53;;;6.91;100.00
11856;BME280;5987;53.140;8.904;2023-04-15T08:46:41;101105.84;;;6.94;100.00
11856;BME280;5987;53.140;8.904;2023-04-15T08:49:46;101104.16;;;6.92;100.00
11856;BME280;5987;53.140;8.904;2023-04-15T08:52:58;101099.75;;;6.95;100.00
11856;BME280;5987;53.140;8.904;2023-04-15T08:56:06;101105.00;;;6.94;100.00
11856;BME280;5987;53.140;8.904;2023-04-15T08:59:12;101108.47;;;6.94;100.00
11856;BME280;5987;53.140;8.904;2023-04-15T09:02:16;101104.94;;;6.97;100.00
11856;BME280;5987;53.140;8.904;2023-04-15T09:05:20;101114.41;;;7.02;100.00
11856;BME280;5987;53.140;8.904;2023-04-15T09:08:25;101114.47;;;6.99;100.00
11856;BME280;5987;53.140;8.904;2023-04-15T09:11:29;101122.22;;;7.04;100.00
11856;BME280;5987;53.140;8.904;2023-04-15T09:14:34;101123.91;;;7.07;100.00
11856;BME280;5987;53.140;8.904;2023-04-15T09:17:42;101122.03;;;7.15;100.00
11856;BME280;5987;53.140;8.904;2023-04-15T09:20:46;101125.44;;;7.18;100.00
11856;BME280;5987;53.140;8.904;2023-04-15T09:23:59;101126.31;;;7.19;100.00
11856;BME280;5987;53.140;8.904;2023-04-15T09:27:04;101126.28;;;7.20;100.00
11856;BME280;5987;53.140;8.904;2023-04-15T09:30:10;101132.34;;;7.22;100.00
11856;BME280;5987;53.140;8.904;2023-04-15T09:33:14;101147.97;;;7.24;100.00
11856;BME280;5987;53.140;8.904;2023-04-15T09:36:18;101127.94;;;7.26;100.00
11856;BME280;5987;53.140;8.904;2023-04-15T09:39:23;101144.34;;;7.33;100.00
11856;BME280;5987;53.140;8.904;2023-04-15T09:42:27;101149.53;;;7.36;100.00
11856;BME280;5987;53.140;8.904;2023-04-15T09:45:33;101148.63;;;7.35;100.00
11856;BME280;5987;53.140;8.904;2023-04-15T09:48:37;101154.50;;;7.50;100.00
11856;BME280;5987;53.140;8.904;2023-04-15T09:51:41;101157.09;;;7.50;100.00
11856;BME280;5987;53.140;8.904;2023-04-15T09:55:06;101152.69;;;7.52;100.00
11856;BME280;5987;53.140;8.904;2023-04-15T09:58:17;101152.03;;;7.41;100.00
11856;BME280;5987;53.140;8.904;2023-04-15T10:01:27;101160.53;;;7.52;100.00
11856;BME280;5987;53.140;8.904;2023-04-15T10:04:35;101151.97;;;7.44;100.00
11856;BME280;5987;53.140;8.904;2023-04-15T10:07:39;101164.91;;;7.51;100.00
11856;BME280;5987;53.140;8.904;2023-04-15T10:10:47;101158.81;;;7.51;100.00
11856;BME280;5987;53.140;8.904;2023-04-15T10:13:53;101163.97;;;7.55;100.00
11856;BME280;5987;53.140;8.904;2023-04-15T10:17:10;101155.44;;;7.46;100.00
11856;BME280;5987;53.140;8.904;2023-04-15T10:20:18;101162.19;;;7.56;100.00
11856;BME280;5987;53.140;8.904;2023-04-15T10:23:22;101165.69;;;7.55;100.00
11856;BME280;5987;53.140;8.904;2023-04-15T10:26:30;101168.28;;;7.58;100.00
11856;BME280;5987;53.140;8.904;2023-04-15T10:29:34;101166.66;;;7.49;100.00
11856;BME280;5987;53.140;8.904;2023-04-15T10:32:39;101179.69;;;7.54;100.00
11856;BME280;5987;53.140;8.904;2023-04-15T10:35:44;101173.66;;;7.49;100.00
11856;BME280;5987;53.140;8.904;2023-04-15T10:38:49;101171.88;;;7.52;100.00
11856;BME280;5987;53.140;8.904;2023-04-15T10:42:08;101175.41;;;7.50;100.00
11856;BME280;5987;53.140;8.904;2023-04-15T10:45:17;101173.72;;;7.46;100.00
11856;BME280;5987;53.140;8.904;2023-04-15T10:48:23;101175.53;;;7.42;100.00
11856;BME280;5987;53.140;8.904;2023-04-15T10:51:31;101177.88;;;7.56;100.00
11856;BME280;5987;53.140;8.904;2023-04-15T10:54:35;101179.56;;;7.59;100.00
11856;BME280;5987;53.140;8.904;2023-04-15T10:57:46;101176.13;;;7.56;100.00
11856;BME280;5987;53.140;8.904;2023-04-15T11:01:02;101181.38;;;7.55;100.00
11856;BME280;5987;53.140;8.904;2023-04-15T11:04:05;101182.97;;;7.62;100.00
11856;BME280;5987;53.140;8.904;2023-04-15T11:07:09;101185.44;;;7.71;100.00
11856;BME280;5987;53.140;8.904;2023-04-15T11:10:50;101183.75;;;7.67;100.00
11856;BME280;5987;53.140;8.904;2023-04-15T11:13:56;101190.63;;;7.73;100.00
11856;BME280;5987;53.140;8.904;2023-04-15T11:17:00;101199.44;;;7.67;100.00
11856;BME280;5987;53.140;8.904;2023-04-15T11:20:15;101194.72;;;7.86;100.00
11856;BME280;5987;53.140;8.904;2023-04-15T11:23:26;101191.56;;;7.69;100.00
11856;BME280;5987;53.140;8.904;2023-04-15T11:26:31;101197.53;;;7.76;100.00
11856;BME280;5987;53.140;8.904;2023-04-15T11:29:36;101199.38;;;7.70;100.00
11856;BME280;5987;53.140;8.904;2023-04-15T11:32:41;101202.72;;;7.79;100.00
11856;BME280;5987;53.140;8.904;2023-04-15T11:35:46;101205.31;;;7.79;100.00
11856;BME280;5987;53.140;8.904;2023-04-15T11:38:50;101214.13;;;7.75;100.00
11856;BME280;5987;53.140;8.904;2023-04-15T11:41:54;101215.78;;;7.79;100.00
11856;BME280;5987;53.140;8.904;2023-04-15T11:45:07;101216.50;;;7.87;100.00
11856;BME280;5987;53.140;8.904;2023-04-15T11:48:13;101223.28;;;7.96;100.00
11856;BME280;5987;53.140;8.904;2023-04-15T11:51:16;101225.13;;;7.92;100.00
11856;BME280;5987;53.140;8.904;2023-04-15T11:54:23;101223.38;;;7.91;100.00
11856;BME280;5987;53.140;8.904;2023-04-15T11:57:30;101226.69;;;8.01;100.00
11856;BME280;5987;53.140;8.904;2023-04-15T12:00:37;101235.38;;;8.01;100.00
11856;BME280;5987;53.140;8.904;2023-04-15T12:03:42;101243.19;;;8.04;100.00
11856;BME280;5987;53.140;8.904;2023-04-15T12:06:48;101242.38;;;8.01;100.00
11856;BME280;5987;53.140;8.904;2023-04-15T12:09:54;101244.81;;;8.08;100.00
11856;BME280;5987;53.140;8.904;2023-04-15T12:12:59;101244.81;;;8.08;100.00
11856;BME280;5987;53.140;8.904;2023-04-15T12:16:04;101247.34;;;8.15;100.00
11856;BME280;5987;53.140;8.904;2023-04-15T12:19:12;101251.59;;;8.20;100.00
11856;BME280;5987;53.140;8.904;2023-04-15T12:22:16;101261.09;;;8.24;100.00
11856;BME280;5987;53.140;8.904;2023-04-15T12:25:33;101257.28;;;8.41;100.00
11856;BME280;5987;53.140;8.904;2023-04-15T12:28:39;101264.22;;;8.42;100.00
11856;BME280;5987;53.140;8.904;2023-04-15T12:31:50;101260.63;;;8.48;100.00
11856;BME280;5987;53.140;8.904;2023-04-15T12:34:54;101258.97;;;8.42;100.00
11856;BME280;5987;53.140;8.904;2023-04-15T12:37:57;101267.53;;;8.52;100.00
11856;BME280;5987;53.140;8.904;2023-04-15T12:41:01;101275.28;;;8.58;100.00
11856;BME280;5987;53.140;8.904;2023-04-15T12:44:41;101290.69;;;8.70;100.00
11856;BME280;5987;53.140;8.904;2023-04-15T12:47:46;101281.16;;;8.68;100.00
11856;BME280;5987;53.140;8.904;2023-04-15T12:50:50;101281.88;;;8.74;100.00
11856;BME280;5987;53.140;8.904;2023-04-15T12:53:56;101280.78;;;8.85;100.00
11856;BME280;5987;53.140;8.904;2023-04-15T12:57:00;101288.44;;;8.94;100.00
11856;BME280;5987;53.140;8.904;2023-04-15T13:00:10;101283.06;;;9.00;100.00
11856;BME280;5987;53.140;8.904;2023-04-15T13:03:16;101289.97;;;9.04;100.00
11856;BME280;5987;53.140;8.904;2023-04-15T13:06:20;101284.41;;;9.17;100.00
11856;BME280;5987;53.140;8.904;2023-04-15T13:09:25;101277.50;;;9.50;100.00
11856;BME280;5987;53.140;8.904;2023-04-15T13:12:28;101280.44;;;9.72;100.00
11856;BME280;5987;53.140;8.904;2023-04-15T13:15:33;101270.47;;;9.85;100.00
11856;BME280;5987;53.140;8.904;2023-04-15T13:18:38;101267.78;;;10.20;100.00
11856;BME280;5987;53.140;8.904;2023-04-15T13:21:42;101268.78;;;10.16;100.00
11856;BME280;5987;53.140;8.904;2023-04-15T13:24:45;101259.59;;;10.30;100.00
11856;BME280;5987;53.140;8.904;2023-04-15T13:27:49;101260.91;;;10.47;100.00
11856;BME280;5987;53.140;8.904;2023-04-15T13:30:53;101268.34;;;10.31;100.00
11856;BME280;5987;53.140;8.904;2023-04-15T13:33:58;101261.94;;;10.41;100.00
11856;BME280;5987;53.140;8.904;2023-04-15T13:37:06;101266.94;;;10.51;100.00
11856;BME280;5987;53.140;8.904;2023-04-15T13:40:10;101274.72;;;10.54;100.00
11856;BME280;5987;53.140;8.904;2023-04-15T13:43:14;101271.91;;;10.60;100.00
11856;BME280;5987;53.140;8.904;2023-04-15T13:46:18;101270.16;;;10.59;100.00
11856;BME280;5987;53.140;8.904;2023-04-15T13:49:23;101270.38;;;10.81;100.00
11856;BME280;5987;53.140;8.904;2023-04-15T13:52:27;101269.84;;;10.70;100.00
11856;BME280;5987;53.140;8.904;2023-04-15T13:55:31;101269.00;;;10.97;100.00
11856;BME280;5987;53.140;8.904;2023-04-15T13:58:36;101281.72;;;10.83;100.00
11856;BME280;5987;53.140;8.904;2023-04-15T14:01:40;101293.31;;;10.76;100.00
11856;BME280;5987;53.140;8.904;2023-04-15T14:04:46;101280.31;;;10.71;100.00
11856;BME280;5987;53.140;8.904;2023-04-15T14:07:50;101285.41;;;11.06;100.00
11856;BME280;5987;53.140;8.904;2023-04-15T14:10:53;101276.34;;;11.14;100.00
11856;BME280;5987;53.140;8.904;2023-04-15T14:13:57;101291.84;;;11.22;100.00
11856;BME280;5987;53.140;8.904;2023-04-15T14:17:01;101289.28;;;11.21;100.00
11856;BME280;5987;53.140;8.904;2023-04-15T14:20:08;101291.72;;;11.54;100.00
11856;BME280;5987;53.140;8.904;2023-04-15T14:23:12;101287.75;;;11.67;100.00
11856;BME280;5987;53.140;8.904;2023-04-15T14:26:15;101286.97;;;11.65;100.00
11856;BME280;5987;53.140;8.904;2023-04-15T14:29:19;101286.63;;;11.49;100.00
11856;BME280;5987;53.140;8.904;2023-04-15T14:32:24;101289.66;;;11.63;100.00
11856;BME280;5987;53.140;8.904;2023-04-15T14:35:30;101295.22;;;11.54;100.00
11856;BME280;5987;53.140;8.904;2023-04-15T14:38:34;101294.91;;;11.63;100.00
11856;BME280;5987;53.140;8.904;2023-04-15T14:41:39;101291.50;;;11.60;100.00
11856;BME280;5987;53.140;8.904;2023-04-15T14:44:43;101300.97;;;11.39;100.00
11856;BME280;5987;53.140;8.904;2023-04-15T14:47:46;101315.19;;;11.33;100.00
11856;BME280;5987;53.140;8.904;2023-04-15T14:50:52;101318.81;;;11.29;100.00
11856;BME280;5987;53.140;8.904;2023-04-15T14:53:56;101314.06;;;11.40;100.00
11856;BME280;5987;53.140;8.904;2023-04-15T14:56:59;101321.66;;;11.49;100.00
11856;BME280;5987;53.140;8.904;2023-04-15T15:00:05;101324.03;;;11.57;100.00
11856;BME280;5987;53.140;8.904;2023-04-15T15:03:11;101313.06;;;11.71;100.00
11856;BME280;5987;53.140;8.904;2023-04-15T15:06:16;101321.06;;;11.68;100.00
11856;BME280;5987;53.140;8.904;2023-04-15T15:09:20;101326.03;;;11.77;100.00
11856;BME280;5987;53.140;8.904;2023-04-15T15:12:25;101318.41;;;11.95;100.00
11856;BME280;5987;53.140;8.904;2023-04-15T15:15:28;101319.63;;;12.11;100.00
11856;BME280;5987;53.140;8.904;2023-04-15T15:18:32;101326.25;;;12.22;100.00
11856;BME280;5987;53.140;8.904;2023-04-15T15:21:37;101324.53;;;12.21;100.00
11856;BME280;5987;53.140;8.904;2023-04-15T15:24:40;101326.84;;;12.30;100.00
11856;BME280;5987;53.140;8.904;2023-04-15T15:27:44;101325.69;;;12.37;100.00
11856;BME280;5987;53.140;8.904;2023-04-15T15:30:48;101338.66;;;12.43;100.00
11856;BME280;5987;53.140;8.904;2023-04-15T15:33:52;101338.09;;;12.35;100.00
11856;BME280;5987;53.140;8.904;2023-04-15T15:36:57;101340.97;;;12.27;100.00
11856;BME280;5987;53.140;8.904;2023-04-15T15:40:00;101341.94;;;12.25;100.00
11856;BME280;5987;53.140;8.904;2023-04-15T15:43:06;101358.63;;;12.25;100.00
11856;BME280;5987;53.140;8.904;2023-04-15T15:46:09;101351.75;;;12.21;100.00
11856;BME280;5987;53.140;8.904;2023-04-15T15:49:13;101360.22;;;12.29;100.00
11856;BME280;5987;53.140;8.904;2023-04-15T15:52:19;101364.97;;;12.20;100.00
11856;BME280;5987;53.140;8.904;2023-04-15T15:55:23;101367.59;;;12.20;100.00
11856;BME280;5987;53.140;8.904;2023-04-15T15:58:28;101380.94;;;12.13;100.00
11856;BME280;5987;53.140;8.904;2023-04-15T16:01:32;101376.91;;;12.03;100.00
11856;BME280;5987;53.140;8.904;2023-04-15T16:04:36;101382.25;;;12.01;100.00
11856;BME280;5987;53.140;8.904;2023-04-15T16:07:41;101389.59;;;11.90;100.00
11856;BME280;5987;53.140;8.904;2023-04-15T16:10:45;101391.25;;;11.94;100.00
11856;BME280;5987;53.140;8.904;2023-04-15T16:13:48;101399.09;;;11.96;100.00
11856;BME280;5987;53.140;8.904;2023-04-15T16:16:52;101406.16;;;11.94;100.00